Terminal Aerodrome Forecast
Issued by NWS

Home | Current Version | Previous Version | Text Only | Print | Product List | Glossary On
Versions: 1 2 3 4 5 6 7 8 9 10 11 12 13 14 15 16 17 18 19 20
000
FTUS45 KABQ 221851 AAA
TAFTCC
TAF AMD
KTCC 221851Z 2219/2318 05012KT P6SM VCTS SCT025 BKN050CB
      TEMPO 2219/2221 VRB25G35KT TSRA OVC010CB
     FM230400 03006KT P6SM VCSH OVC020
     FM230800 VRB03KT 5SM BR OVC010
     FM231500 12007KT P6SM SCT040=

USA.gov is the U.S. government's official web portal to all federal, state and local government web resources and services.